sensor_id;sensor_type;location;lat;lon;timestamp;P1;durP1;ratioP1;P2;durP2;ratioP2
7583;SDS011;3833;41.764;26.204;2022-12-07T00:01:31;65.30;;;24.27;;
7583;SDS011;3833;41.764;26.204;2022-12-07T00:03:59;93.70;;;25.57;;
7583;SDS011;3833;41.764;26.204;2022-12-07T00:06:30;60.93;;;24.90;;
7583;SDS011;3833;41.764;26.204;2022-12-07T00:08:57;76.10;;;26.53;;
7583;SDS011;3833;41.764;26.204;2022-12-07T00:11:25;60.53;;;22.53;;
7583;SDS011;3833;41.764;26.204;2022-12-07T00:13:52;111.60;;;26.60;;
7583;SDS011;3833;41.764;26.204;2022-12-07T00:16:19;82.27;;;20.00;;
7583;SDS011;3833;41.764;26.204;2022-12-07T00:18:46;81.07;;;22.60;;
7583;SDS011;3833;41.764;26.204;2022-12-07T00:21:15;62.00;;;22.10;;
7583;SDS011;3833;41.764;26.204;2022-12-07T00:23:44;80.37;;;23.40;;
7583;SDS011;3833;41.764;26.204;2022-12-07T00:26:15;84.80;;;25.20;;
7583;SDS011;3833;41.764;26.204;2022-12-07T00:28:45;69.60;;;20.63;;
7583;SDS011;3833;41.764;26.204;2022-12-07T00:31:13;69.70;;;22.27;;
7583;SDS011;3833;41.764;26.204;2022-12-07T00:33:40;70.40;;;19.20;;
7583;SDS011;3833;41.764;26.204;2022-12-07T00:36:08;44.37;;;21.07;;
7583;SDS011;3833;41.764;26.204;2022-12-07T00:38:35;61.77;;;26.33;;
7583;SDS011;3833;41.764;26.204;2022-12-07T00:41:03;59.43;;;28.20;;
7583;SDS011;3833;41.764;26.204;2022-12-07T00:43:30;63.37;;;25.83;;
7583;SDS011;3833;41.764;26.204;2022-12-07T00:45:58;35.23;;;16.33;;
7583;SDS011;3833;41.764;26.204;2022-12-07T00:48:25;44.63;;;23.07;;
7583;SDS011;3833;41.764;26.204;2022-12-07T00:50:51;36.20;;;18.87;;
7583;SDS011;3833;41.764;26.204;2022-12-07T00:53:18;30.67;;;16.20;;
7583;SDS011;3833;41.764;26.204;2022-12-07T00:55:45;36.60;;;17.07;;
7583;SDS011;3833;41.764;26.204;2022-12-07T00:58:11;43.87;;;18.23;;
7583;SDS011;3833;41.764;26.204;2022-12-07T01:00:39;43.03;;;17.13;;
7583;SDS011;3833;41.764;26.204;2022-12-07T01:03:08;36.50;;;17.27;;
7583;SDS011;3833;41.764;26.204;2022-12-07T01:05:35;48.70;;;18.73;;
7583;SDS011;3833;41.764;26.204;2022-12-07T01:08:02;37.00;;;18.13;;
7583;SDS011;3833;41.764;26.204;2022-12-07T01:10:28;39.40;;;17.60;;
7583;SDS011;3833;41.764;26.204;2022-12-07T01:12:56;35.33;;;17.50;;
7583;SDS011;3833;41.764;26.204;2022-12-07T01:15:23;30.13;;;17.90;;
7583;SDS011;3833;41.764;26.204;2022-12-07T01:17:50;37.53;;;19.90;;
7583;SDS011;3833;41.764;26.204;2022-12-07T01:20:18;31.93;;;19.70;;
7583;SDS011;3833;41.764;26.204;2022-12-07T01:22:45;34.33;;;18.90;;
7583;SDS011;3833;41.764;26.204;2022-12-07T01:25:11;30.73;;;17.67;;
7583;SDS011;3833;41.764;26.204;2022-12-07T01:27:38;30.33;;;16.67;;
7583;SDS011;3833;41.764;26.204;2022-12-07T01:30:06;25.97;;;14.13;;
7583;SDS011;3833;41.764;26.204;2022-12-07T01:32:32;26.53;;;14.10;;
7583;SDS011;3833;41.764;26.204;2022-12-07T01:34:59;26.10;;;15.33;;
7583;SDS011;3833;41.764;26.204;2022-12-07T01:37:27;22.70;;;13.50;;
7583;SDS011;3833;41.764;26.204;2022-12-07T01:39:54;24.07;;;15.27;;
7583;SDS011;3833;41.764;26.204;2022-12-07T01:42:20;22.50;;;14.00;;
7583;SDS011;3833;41.764;26.204;2022-12-07T01:47:32;20.43;;;13.90;;
7583;SDS011;3833;41.764;26.204;2022-12-07T01:49:58;18.73;;;12.53;;
7583;SDS011;3833;41.764;26.204;2022-12-07T01:52:26;20.70;;;12.33;;
7583;SDS011;3833;41.764;26.204;2022-12-07T01:54:56;18.47;;;11.87;;
7583;SDS011;3833;41.764;26.204;2022-12-07T01:57:23;17.60;;;11.70;;
7583;SDS011;3833;41.764;26.204;2022-12-07T01:59:50;26.40;;;13.97;;
7583;SDS011;3833;41.764;26.204;2022-12-07T02:02:18;22.27;;;13.03;;
7583;SDS011;3833;41.764;26.204;2022-12-07T02:04:45;26.03;;;12.27;;
7583;SDS011;3833;41.764;26.204;2022-12-07T02:07:13;20.97;;;12.13;;
7583;SDS011;3833;41.764;26.204;2022-12-07T02:09:39;27.00;;;12.87;;
7583;SDS011;3833;41.764;26.204;2022-12-07T02:12:07;22.83;;;11.30;;
7583;SDS011;3833;41.764;26.204;2022-12-07T02:14:34;25.03;;;13.17;;
7583;SDS011;3833;41.764;26.204;2022-12-07T02:17:04;25.70;;;12.97;;
7583;SDS011;3833;41.764;26.204;2022-12-07T02:22:36;27.00;;;13.37;;
7583;SDS011;3833;41.764;26.204;2022-12-07T02:25:10;27.73;;;15.53;;
7583;SDS011;3833;41.764;26.204;2022-12-07T02:27:45;28.60;;;16.67;;
7583;SDS011;3833;41.764;26.204;2022-12-07T02:30:14;25.60;;;16.53;;
7583;SDS011;3833;41.764;26.204;2022-12-07T02:32:42;27.90;;;15.07;;
7583;SDS011;3833;41.764;26.204;2022-12-07T02:35:10;27.57;;;12.90;;
7583;SDS011;3833;41.764;26.204;2022-12-07T02:37:39;24.23;;;14.33;;
7583;SDS011;3833;41.764;26.204;2022-12-07T02:40:08;23.83;;;14.67;;
7583;SDS011;3833;41.764;26.204;2022-12-07T02:42:38;26.50;;;15.07;;
7583;SDS011;3833;41.764;26.204;2022-12-07T02:45:06;17.83;;;11.23;;
7583;SDS011;3833;41.764;26.204;2022-12-07T02:47:34;21.53;;;11.90;;
7583;SDS011;3833;41.764;26.204;2022-12-07T02:50:04;17.03;;;11.60;;
7583;SDS011;3833;41.764;26.204;2022-12-07T02:52:31;27.33;;;12.80;;
7583;SDS011;3833;41.764;26.204;2022-12-07T02:54:57;24.97;;;14.00;;
7583;SDS011;3833;41.764;26.204;2022-12-07T02:57:31;25.53;;;13.63;;
7583;SDS011;3833;41.764;26.204;2022-12-07T03:00:00;27.77;;;11.73;;
7583;SDS011;3833;41.764;26.204;2022-12-07T03:02:30;25.30;;;12.20;;
7583;SDS011;3833;41.764;26.204;2022-12-07T03:05:02;31.30;;;16.03;;
7583;SDS011;3833;41.764;26.204;2022-12-07T03:07:33;27.20;;;13.87;;
7583;SDS011;3833;41.764;26.204;2022-12-07T03:10:06;29.27;;;13.93;;
7583;SDS011;3833;41.764;26.204;2022-12-07T03:12:35;27.73;;;14.33;;
7583;SDS011;3833;41.764;26.204;2022-12-07T03:15:04;28.93;;;14.50;;
7583;SDS011;3833;41.764;26.204;2022-12-07T03:17:32;27.40;;;15.07;;
7583;SDS011;3833;41.764;26.204;2022-12-07T03:20:04;34.73;;;14.93;;
7583;SDS011;3833;41.764;26.204;2022-12-07T03:22:33;29.67;;;13.90;;
7583;SDS011;3833;41.764;26.204;2022-12-07T03:25:02;34.80;;;16.77;;
7583;SDS011;3833;41.764;26.204;2022-12-07T03:27:31;35.00;;;16.70;;
7583;SDS011;3833;41.764;26.204;2022-12-07T03:29:59;31.03;;;16.00;;
7583;SDS011;3833;41.764;26.204;2022-12-07T03:32:27;32.30;;;15.90;;
7583;SDS011;3833;41.764;26.204;2022-12-07T03:34:57;30.10;;;15.20;;
7583;SDS011;3833;41.764;26.204;2022-12-07T03:37:29;25.67;;;12.80;;
7583;SDS011;3833;41.764;26.204;2022-12-07T03:39:58;27.80;;;14.13;;
7583;SDS011;3833;41.764;26.204;2022-12-07T03:42:26;25.23;;;13.07;;
7583;SDS011;3833;41.764;26.204;2022-12-07T03:44:53;24.90;;;13.00;;
7583;SDS011;3833;41.764;26.204;2022-12-07T03:47:20;28.63;;;13.40;;
7583;SDS011;3833;41.764;26.204;2022-12-07T03:49:50;25.33;;;13.93;;
7583;SDS011;3833;41.764;26.204;2022-12-07T03:52:18;21.67;;;12.80;;
7583;SDS011;3833;41.764;26.204;2022-12-07T03:54:49;23.50;;;13.50;;
7583;SDS011;3833;41.764;26.204;2022-12-07T03:57:18;28.10;;;15.13;;
7583;SDS011;3833;41.764;26.204;2022-12-07T03:59:45;29.80;;;13.30;;
7583;SDS011;3833;41.764;26.204;2022-12-07T04:02:12;23.47;;;14.30;;
7583;SDS011;3833;41.764;26.204;2022-12-07T04:04:39;30.77;;;15.10;;
7583;SDS011;3833;41.764;26.204;2022-12-07T04:07:09;32.10;;;16.40;;
7583;SDS011;3833;41.764;26.204;2022-12-07T04:09:35;28.83;;;16.10;;
7583;SDS011;3833;41.764;26.204;2022-12-07T04:12:04;32.60;;;15.20;;
7583;SDS011;3833;41.764;26.204;2022-12-07T04:14:30;29.37;;;15.97;;
7583;SDS011;3833;41.764;26.204;2022-12-07T04:16:57;28.73;;;17.30;;
7583;SDS011;3833;41.764;26.204;2022-12-07T04:19:25;33.40;;;16.83;;
7583;SDS011;3833;41.764;26.204;2022-12-07T04:21:52;27.73;;;15.57;;
7583;SDS011;3833;41.764;26.204;2022-12-07T04:24:18;32.63;;;15.30;;
7583;SDS011;3833;41.764;26.204;2022-12-07T04:26:45;30.67;;;15.57;;
7583;SDS011;3833;41.764;26.204;2022-12-07T04:29:14;32.50;;;15.53;;
7583;SDS011;3833;41.764;26.204;2022-12-07T04:31:41;28.67;;;16.13;;
7583;SDS011;3833;41.764;26.204;2022-12-07T04:34:07;26.03;;;15.27;;
7583;SDS011;3833;41.764;26.204;2022-12-07T04:36:34;33.43;;;17.00;;
7583;SDS011;3833;41.764;26.204;2022-12-07T04:39:00;31.70;;;17.37;;
7583;SDS011;3833;41.764;26.204;2022-12-07T04:41:30;36.97;;;19.27;;
7583;SDS011;3833;41.764;26.204;2022-12-07T04:43:58;36.30;;;20.47;;
7583;SDS011;3833;41.764;26.204;2022-12-07T04:46:26;39.50;;;19.60;;
7583;SDS011;3833;41.764;26.204;2022-12-07T04:48:53;40.43;;;21.00;;
7583;SDS011;3833;41.764;26.204;2022-12-07T04:51:21;39.77;;;24.83;;
7583;SDS011;3833;41.764;26.204;2022-12-07T04:53:47;45.83;;;24.63;;
7583;SDS011;3833;41.764;26.204;2022-12-07T04:56:14;42.70;;;24.77;;
7583;SDS011;3833;41.764;26.204;2022-12-07T04:58:41;47.03;;;24.77;;
7583;SDS011;3833;41.764;26.204;2022-12-07T05:01:07;40.17;;;24.03;;
7583;SDS011;3833;41.764;26.204;2022-12-07T05:03:35;45.17;;;27.47;;
7583;SDS011;3833;41.764;26.204;2022-12-07T05:06:02;40.17;;;24.50;;
7583;SDS011;3833;41.764;26.204;2022-12-07T05:08:28;41.57;;;23.83;;
7583;SDS011;3833;41.764;26.204;2022-12-07T05:10:55;39.43;;;23.10;;
7583;SDS011;3833;41.764;26.204;2022-12-07T05:13:21;38.17;;;21.43;;
7583;SDS011;3833;41.764;26.204;2022-12-07T05:15:48;35.37;;;19.27;;
7583;SDS011;3833;41.764;26.204;2022-12-07T05:18:15;35.10;;;18.90;;
7583;SDS011;3833;41.764;26.204;2022-12-07T05:20:43;36.37;;;18.57;;
7583;SDS011;3833;41.764;26.204;2022-12-07T05:23:10;38.57;;;19.17;;
7583;SDS011;3833;41.764;26.204;2022-12-07T05:25:40;44.07;;;21.67;;
7583;SDS011;3833;41.764;26.204;2022-12-07T05:28:06;38.63;;;19.73;;
7583;SDS011;3833;41.764;26.204;2022-12-07T05:30:33;38.30;;;21.10;;
7583;SDS011;3833;41.764;26.204;2022-12-07T05:33:05;42.67;;;19.83;;
7583;SDS011;3833;41.764;26.204;2022-12-07T05:35:32;46.97;;;20.47;;
7583;SDS011;3833;41.764;26.204;2022-12-07T05:38:02;45.30;;;21.47;;
7583;SDS011;3833;41.764;26.204;2022-12-07T05:40:29;54.03;;;23.90;;
7583;SDS011;3833;41.764;26.204;2022-12-07T05:42:55;64.70;;;24.73;;
7583;SDS011;3833;41.764;26.204;2022-12-07T05:45:22;62.70;;;26.03;;
7583;SDS011;3833;41.764;26.204;2022-12-07T05:47:48;57.73;;;27.77;;
7583;SDS011;3833;41.764;26.204;2022-12-07T05:50:15;65.37;;;29.87;;
7583;SDS011;3833;41.764;26.204;2022-12-07T05:52:41;68.90;;;31.03;;
7583;SDS011;3833;41.764;26.204;2022-12-07T05:55:09;84.73;;;32.87;;
7583;SDS011;3833;41.764;26.204;2022-12-07T05:57:36;76.50;;;30.07;;
7583;SDS011;3833;41.764;26.204;2022-12-07T06:00:03;84.20;;;30.20;;
7583;SDS011;3833;41.764;26.204;2022-12-07T06:02:28;77.33;;;31.83;;
7583;SDS011;3833;41.764;26.204;2022-12-07T06:04:55;85.67;;;35.10;;
7583;SDS011;3833;41.764;26.204;2022-12-07T06:07:21;100.00;;;36.03;;
7583;SDS011;3833;41.764;26.204;2022-12-07T06:09:48;108.53;;;38.00;;
7583;SDS011;3833;41.764;26.204;2022-12-07T06:12:16;114.23;;;40.33;;
7583;SDS011;3833;41.764;26.204;2022-12-07T06:14:59;131.83;;;40.93;;
7583;SDS011;3833;41.764;26.204;2022-12-07T06:17:26;127.83;;;41.83;;
7583;SDS011;3833;41.764;26.204;2022-12-07T06:19:52;179.23;;;66.67;;
7583;SDS011;3833;41.764;26.204;2022-12-07T06:22:19;154.77;;;62.37;;
7583;SDS011;3833;41.764;26.204;2022-12-07T06:24:46;102.10;;;39.93;;
7583;SDS011;3833;41.764;26.204;2022-12-07T06:27:13;82.73;;;34.80;;
7583;SDS011;3833;41.764;26.204;2022-12-07T06:29:41;56.47;;;25.57;;
7583;SDS011;3833;41.764;26.204;2022-12-07T06:32:09;63.70;;;27.17;;
7583;SDS011;3833;41.764;26.204;2022-12-07T06:34:37;72.33;;;29.83;;
7583;SDS011;3833;41.764;26.204;2022-12-07T06:37:04;102.43;;;34.73;;
7583;SDS011;3833;41.764;26.204;2022-12-07T06:39:31;107.93;;;38.77;;
7583;SDS011;3833;41.764;26.204;2022-12-07T06:42:00;102.70;;;33.73;;
7583;SDS011;3833;41.764;26.204;2022-12-07T06:44:27;95.93;;;35.43;;
7583;SDS011;3833;41.764;26.204;2022-12-07T06:46:56;102.77;;;31.60;;
7583;SDS011;3833;41.764;26.204;2022-12-07T06:49:23;80.43;;;29.57;;
7583;SDS011;3833;41.764;26.204;2022-12-07T06:51:51;75.23;;;28.53;;
7583;SDS011;3833;41.764;26.204;2022-12-07T06:54:19;73.00;;;31.10;;
7583;SDS011;3833;41.764;26.204;2022-12-07T06:56:47;76.57;;;27.60;;
7583;SDS011;3833;41.764;26.204;2022-12-07T06:59:14;75.40;;;29.43;;
7583;SDS011;3833;41.764;26.204;2022-12-07T07:01:43;76.67;;;28.57;;
7583;SDS011;3833;41.764;26.204;2022-12-07T07:04:12;68.87;;;30.80;;
7583;SDS011;3833;41.764;26.204;2022-12-07T07:06:42;97.87;;;34.47;;
7583;SDS011;3833;41.764;26.204;2022-12-07T07:09:09;148.53;;;64.83;;
7583;SDS011;3833;41.764;26.204;2022-12-07T07:11:35;129.60;;;35.87;;
7583;SDS011;3833;41.764;26.204;2022-12-07T07:14:10;146.37;;;41.47;;
7583;SDS011;3833;41.764;26.204;2022-12-07T07:16:59;171.07;;;34.07;;
7583;SDS011;3833;41.764;26.204;2022-12-07T07:19:30;134.13;;;38.33;;
7583;SDS011;3833;41.764;26.204;2022-12-07T07:21:58;186.37;;;52.80;;
7583;SDS011;3833;41.764;26.204;2022-12-07T07:24:24;145.40;;;42.23;;
7583;SDS011;3833;41.764;26.204;2022-12-07T07:26:51;114.73;;;40.47;;
7583;SDS011;3833;41.764;26.204;2022-12-07T07:29:18;122.73;;;42.53;;
7583;SDS011;3833;41.764;26.204;2022-12-07T07:31:46;146.90;;;44.63;;
7583;SDS011;3833;41.764;26.204;2022-12-07T07:34:15;117.57;;;40.20;;
7583;SDS011;3833;41.764;26.204;2022-12-07T07:36:50;168.23;;;41.77;;
7583;SDS011;3833;41.764;26.204;2022-12-07T07:39:21;313.83;;;175.03;;
7583;SDS011;3833;41.764;26.204;2022-12-07T07:42:09;214.20;;;80.53;;
7583;SDS011;3833;41.764;26.204;2022-12-07T07:44:38;286.30;;;128.50;;
7583;SDS011;3833;41.764;26.204;2022-12-07T07:47:05;223.50;;;98.90;;
7583;SDS011;3833;41.764;26.204;2022-12-07T07:49:34;156.83;;;53.47;;
7583;SDS011;3833;41.764;26.204;2022-12-07T07:52:05;168.77;;;56.00;;
7583;SDS011;3833;41.764;26.204;2022-12-07T07:54:32;152.03;;;47.73;;
7583;SDS011;3833;41.764;26.204;2022-12-07T07:56:59;148.77;;;47.90;;
7583;SDS011;3833;41.764;26.204;2022-12-07T07:59:26;140.93;;;44.07;;
7583;SDS011;3833;41.764;26.204;2022-12-07T08:01:55;126.83;;;44.07;;
7583;SDS011;3833;41.764;26.204;2022-12-07T08:04:22;119.50;;;42.43;;
7583;SDS011;3833;41.764;26.204;2022-12-07T08:06:51;112.70;;;40.17;;
7583;SDS011;3833;41.764;26.204;2022-12-07T08:09:19;113.97;;;42.53;;
7583;SDS011;3833;41.764;26.204;2022-12-07T08:11:46;113.40;;;44.27;;
7583;SDS011;3833;41.764;26.204;2022-12-07T08:14:14;88.10;;;35.73;;
7583;SDS011;3833;41.764;26.204;2022-12-07T08:16:42;83.57;;;34.53;;
7583;SDS011;3833;41.764;26.204;2022-12-07T08:19:09;86.83;;;38.37;;
7583;SDS011;3833;41.764;26.204;2022-12-07T08:21:36;90.33;;;39.60;;
7583;SDS011;3833;41.764;26.204;2022-12-07T08:24:04;88.70;;;39.50;;
7583;SDS011;3833;41.764;26.204;2022-12-07T08:26:32;84.63;;;36.70;;
7583;SDS011;3833;41.764;26.204;2022-12-07T08:29:02;78.27;;;35.00;;
7583;SDS011;3833;41.764;26.204;2022-12-07T08:31:34;76.97;;;35.73;;
7583;SDS011;3833;41.764;26.204;2022-12-07T08:34:05;92.07;;;38.50;;
7583;SDS011;3833;41.764;26.204;2022-12-07T08:36:32;84.07;;;35.47;;
7583;SDS011;3833;41.764;26.204;2022-12-07T08:38:58;76.93;;;36.57;;
7583;SDS011;3833;41.764;26.204;2022-12-07T08:41:25;75.23;;;34.43;;
7583;SDS011;3833;41.764;26.204;2022-12-07T08:43:53;70.90;;;34.20;;
7583;SDS011;3833;41.764;26.204;2022-12-07T08:46:19;78.33;;;34.63;;
7583;SDS011;3833;41.764;26.204;2022-12-07T08:48:49;90.33;;;38.80;;
7583;SDS011;3833;41.764;26.204;2022-12-07T08:51:18;86.30;;;36.87;;
7583;SDS011;3833;41.764;26.204;2022-12-07T08:53:45;94.07;;;38.50;;
7583;SDS011;3833;41.764;26.204;2022-12-07T08:56:11;90.47;;;38.03;;
7583;SDS011;3833;41.764;26.204;2022-12-07T08:58:38;98.63;;;46.77;;
7583;SDS011;3833;41.764;26.204;2022-12-07T09:01:06;68.60;;;34.23;;
7583;SDS011;3833;41.764;26.204;2022-12-07T09:03:33;74.90;;;35.47;;
7583;SDS011;3833;41.764;26.204;2022-12-07T09:06:00;74.93;;;35.97;;
7583;SDS011;3833;41.764;26.204;2022-12-07T09:08:27;81.13;;;36.67;;
7583;SDS011;3833;41.764;26.204;2022-12-07T09:10:55;80.80;;;37.13;;
7583;SDS011;3833;41.764;26.204;2022-12-07T09:13:22;82.27;;;35.60;;
7583;SDS011;3833;41.764;26.204;2022-12-07T09:15:48;86.63;;;37.83;;
7583;SDS011;3833;41.764;26.204;2022-12-07T09:18:16;86.50;;;40.40;;
7583;SDS011;3833;41.764;26.204;2022-12-07T09:20:43;89.57;;;39.20;;
7583;SDS011;3833;41.764;26.204;2022-12-07T09:23:09;78.10;;;35.40;;
7583;SDS011;3833;41.764;26.204;2022-12-07T09:25:36;99.63;;;43.40;;
7583;SDS011;3833;41.764;26.204;2022-12-07T09:28:03;91.17;;;41.03;;
7583;SDS011;3833;41.764;26.204;2022-12-07T09:30:29;87.63;;;39.03;;
7583;SDS011;3833;41.764;26.204;2022-12-07T09:32:56;87.37;;;39.93;;
7583;SDS011;3833;41.764;26.204;2022-12-07T09:35:24;80.13;;;40.27;;
7583;SDS011;3833;41.764;26.204;2022-12-07T09:37:51;90.10;;;41.47;;
7583;SDS011;3833;41.764;26.204;2022-12-07T09:40:18;91.97;;;41.03;;
7583;SDS011;3833;41.764;26.204;2022-12-07T09:42:47;90.97;;;44.90;;
7583;SDS011;3833;41.764;26.204;2022-12-07T09:45:15;86.37;;;39.97;;
7583;SDS011;3833;41.764;26.204;2022-12-07T09:47:42;70.10;;;32.53;;
7583;SDS011;3833;41.764;26.204;2022-12-07T09:50:12;64.90;;;33.03;;
7583;SDS011;3833;41.764;26.204;2022-12-07T09:52:41;73.40;;;32.13;;
7583;SDS011;3833;41.764;26.204;2022-12-07T09:55:10;70.00;;;39.93;;
7583;SDS011;3833;41.764;26.204;2022-12-07T09:57:37;56.67;;;28.57;;
7583;SDS011;3833;41.764;26.204;2022-12-07T10:00:06;66.93;;;33.03;;
7583;SDS011;3833;41.764;26.204;2022-12-07T10:02:35;52.87;;;28.20;;
7583;SDS011;3833;41.764;26.204;2022-12-07T10:05:06;56.47;;;26.63;;
7583;SDS011;3833;41.764;26.204;2022-12-07T10:07:33;47.90;;;24.67;;
7583;SDS011;3833;41.764;26.204;2022-12-07T10:10:05;50.33;;;25.50;;
7583;SDS011;3833;41.764;26.204;2022-12-07T10:12:39;37.30;;;22.33;;
7583;SDS011;3833;41.764;26.204;2022-12-07T10:15:18;46.57;;;23.83;;
7583;SDS011;3833;41.764;26.204;2022-12-07T10:17:47;58.90;;;32.10;;
7583;SDS011;3833;41.764;26.204;2022-12-07T10:20:16;55.03;;;28.33;;
7583;SDS011;3833;41.764;26.204;2022-12-07T10:22:56;55.77;;;30.83;;
7583;SDS011;3833;41.764;26.204;2022-12-07T10:25:25;59.57;;;31.10;;
7583;SDS011;3833;41.764;26.204;2022-12-07T10:28:02;60.83;;;30.03;;
7583;SDS011;3833;41.764;26.204;2022-12-07T10:30:29;66.27;;;33.77;;
7583;SDS011;3833;41.764;26.204;2022-12-07T10:32:56;75.73;;;32.77;;
7583;SDS011;3833;41.764;26.204;2022-12-07T10:35:24;71.10;;;35.57;;
7583;SDS011;3833;41.764;26.204;2022-12-07T10:37:51;76.20;;;34.67;;
7583;SDS011;3833;41.764;26.204;2022-12-07T10:40:30;74.57;;;35.67;;
7583;SDS011;3833;41.764;26.204;2022-12-07T10:43:00;74.77;;;35.20;;
7583;SDS011;3833;41.764;26.204;2022-12-07T10:45:28;73.33;;;36.13;;
7583;SDS011;3833;41.764;26.204;2022-12-07T10:47:55;79.27;;;38.33;;
7583;SDS011;3833;41.764;26.204;2022-12-07T10:50:35;90.90;;;42.70;;
7583;SDS011;3833;41.764;26.204;2022-12-07T10:56:06;84.93;;;40.03;;
7583;SDS011;3833;41.764;26.204;2022-12-07T10:58:40;79.83;;;41.10;;
7583;SDS011;3833;41.764;26.204;2022-12-07T11:01:12;72.37;;;38.67;;
7583;SDS011;3833;41.764;26.204;2022-12-07T11:03:43;65.13;;;33.47;;
7583;SDS011;3833;41.764;26.204;2022-12-07T11:06:14;62.00;;;31.70;;
7583;SDS011;3833;41.764;26.204;2022-12-07T11:08:57;60.40;;;31.13;;
7583;SDS011;3833;41.764;26.204;2022-12-07T11:11:29;64.63;;;32.77;;
7583;SDS011;3833;41.764;26.204;2022-12-07T11:14:00;57.33;;;30.50;;
7583;SDS011;3833;41.764;26.204;2022-12-07T11:16:31;57.03;;;31.17;;
7583;SDS011;3833;41.764;26.204;2022-12-07T11:19:05;52.77;;;29.83;;
7583;SDS011;3833;41.764;26.204;2022-12-07T11:21:35;51.77;;;28.67;;
7583;SDS011;3833;41.764;26.204;2022-12-07T11:24:06;48.97;;;30.33;;
7583;SDS011;3833;41.764;26.204;2022-12-07T11:26:42;51.50;;;31.33;;
7583;SDS011;3833;41.764;26.204;2022-12-07T11:29:15;61.90;;;34.83;;
7583;SDS011;3833;41.764;26.204;2022-12-07T11:31:50;45.47;;;26.57;;
7583;SDS011;3833;41.764;26.204;2022-12-07T11:34:21;36.60;;;24.07;;
7583;SDS011;3833;41.764;26.204;2022-12-07T11:36:53;44.77;;;26.23;;
7583;SDS011;3833;41.764;26.204;2022-12-07T11:39:22;42.37;;;25.80;;
7583;SDS011;3833;41.764;26.204;2022-12-07T11:41:54;39.93;;;24.40;;
7583;SDS011;3833;41.764;26.204;2022-12-07T11:44:25;38.00;;;24.60;;
7583;SDS011;3833;41.764;26.204;2022-12-07T11:46:54;29.67;;;19.83;;
7583;SDS011;3833;41.764;26.204;2022-12-07T11:49:23;28.83;;;19.90;;
7583;SDS011;3833;41.764;26.204;2022-12-07T11:51:53;28.50;;;17.73;;
7583;SDS011;3833;41.764;26.204;2022-12-07T11:54:21;33.10;;;21.30;;
7583;SDS011;3833;41.764;26.204;2022-12-07T11:56:50;34.73;;;22.57;;
7583;SDS011;3833;41.764;26.204;2022-12-07T11:59:21;28.37;;;20.13;;
7583;SDS011;3833;41.764;26.204;2022-12-07T12:01:53;26.90;;;16.50;;
7583;SDS011;3833;41.764;26.204;2022-12-07T12:04:29;33.90;;;21.87;;
7583;SDS011;3833;41.764;26.204;2022-12-07T12:06:57;36.27;;;22.00;;
7583;SDS011;3833;41.764;26.204;2022-12-07T12:09:24;36.03;;;21.47;;
7583;SDS011;3833;41.764;26.204;2022-12-07T12:11:59;29.57;;;20.27;;
7583;SDS011;3833;41.764;26.204;2022-12-07T12:14:33;26.30;;;20.00;;
7583;SDS011;3833;41.764;26.204;2022-12-07T12:19:45;36.07;;;21.57;;
7583;SDS011;3833;41.764;26.204;2022-12-07T12:22:24;35.10;;;23.37;;
7583;SDS011;3833;41.764;26.204;2022-12-07T12:24:53;25.70;;;17.20;;
7583;SDS011;3833;41.764;26.204;2022-12-07T12:27:21;29.10;;;19.50;;
7583;SDS011;3833;41.764;26.204;2022-12-07T12:29:53;29.00;;;20.03;;
7583;SDS011;3833;41.764;26.204;2022-12-07T12:32:20;28.00;;;19.07;;
7583;SDS011;3833;41.764;26.204;2022-12-07T12:37:43;26.30;;;17.23;;
7583;SDS011;3833;41.764;26.204;2022-12-07T12:42:56;27.40;;;18.23;;
7583;SDS011;3833;41.764;26.204;2022-12-07T12:45:25;29.67;;;20.83;;
7583;SDS011;3833;41.764;26.204;2022-12-07T12:47:53;29.70;;;19.77;;
7583;SDS011;3833;41.764;26.204;2022-12-07T12:50:21;30.30;;;18.63;;
7583;SDS011;3833;41.764;26.204;2022-12-07T12:58:31;26.70;;;19.47;;
7583;SDS011;3833;41.764;26.204;2022-12-07T13:03:42;29.27;;;19.27;;
7583;SDS011;3833;41.764;26.204;2022-12-07T13:06:18;30.83;;;19.53;;
7583;SDS011;3833;41.764;26.204;2022-12-07T13:11:46;33.17;;;20.67;;
7583;SDS011;3833;41.764;26.204;2022-12-07T13:16:58;26.13;;;17.27;;
7583;SDS011;3833;41.764;26.204;2022-12-07T13:24:55;30.73;;;19.57;;
7583;SDS011;3833;41.764;26.204;2022-12-07T13:27:22;26.73;;;18.63;;
7583;SDS011;3833;41.764;26.204;2022-12-07T13:29:48;28.90;;;17.40;;
7583;SDS011;3833;41.764;26.204;2022-12-07T13:32:18;27.20;;;17.17;;
7583;SDS011;3833;41.764;26.204;2022-12-07T13:34:48;29.20;;;18.90;;
7583;SDS011;3833;41.764;26.204;2022-12-07T13:37:15;45.60;;;27.63;;
7583;SDS011;3833;41.764;26.204;2022-12-07T13:39:44;34.63;;;24.17;;
7583;SDS011;3833;41.764;26.204;2022-12-07T13:42:18;37.07;;;23.87;;
7583;SDS011;3833;41.764;26.204;2022-12-07T13:44:46;49.13;;;29.33;;
7583;SDS011;3833;41.764;26.204;2022-12-07T13:47:13;44.07;;;26.40;;
7583;SDS011;3833;41.764;26.204;2022-12-07T13:49:46;40.73;;;26.23;;
7583;SDS011;3833;41.764;26.204;2022-12-07T13:52:15;45.70;;;29.53;;
7583;SDS011;3833;41.764;26.204;2022-12-07T13:54:44;37.33;;;26.37;;
7583;SDS011;3833;41.764;26.204;2022-12-07T13:57:11;37.57;;;25.10;;
7583;SDS011;3833;41.764;26.204;2022-12-07T13:59:39;38.60;;;25.83;;
7583;SDS011;3833;41.764;26.204;2022-12-07T14:02:16;33.33;;;23.40;;
7583;SDS011;3833;41.764;26.204;2022-12-07T14:04:43;38.20;;;23.77;;
7583;SDS011;3833;41.764;26.204;2022-12-07T14:07:18;31.93;;;21.40;;
7583;SDS011;3833;41.764;26.204;2022-12-07T14:09:53;29.07;;;19.53;;
7583;SDS011;3833;41.764;26.204;2022-12-07T14:12:19;34.77;;;23.17;;
7583;SDS011;3833;41.764;26.204;2022-12-07T14:14:47;41.40;;;23.37;;
7583;SDS011;3833;41.764;26.204;2022-12-07T14:17:15;32.27;;;22.43;;
7583;SDS011;3833;41.764;26.204;2022-12-07T14:19:45;35.27;;;22.50;;
7583;SDS011;3833;41.764;26.204;2022-12-07T14:22:20;33.27;;;22.37;;
7583;SDS011;3833;41.764;26.204;2022-12-07T14:24:47;45.40;;;27.63;;
7583;SDS011;3833;41.764;26.204;2022-12-07T14:27:18;38.00;;;25.60;;
7583;SDS011;3833;41.764;26.204;2022-12-07T14:29:44;43.43;;;26.97;;
7583;SDS011;3833;41.764;26.204;2022-12-07T14:32:20;47.30;;;28.67;;
7583;SDS011;3833;41.764;26.204;2022-12-07T14:34:54;39.90;;;27.43;;
7583;SDS011;3833;41.764;26.204;2022-12-07T14:40:12;48.97;;;33.77;;
7583;SDS011;3833;41.764;26.204;2022-12-07T14:42:39;50.07;;;34.53;;
7583;SDS011;3833;41.764;26.204;2022-12-07T14:45:10;44.57;;;27.23;;
7583;SDS011;3833;41.764;26.204;2022-12-07T14:47:49;44.53;;;28.57;;
7583;SDS011;3833;41.764;26.204;2022-12-07T14:50:18;43.27;;;29.53;;
7583;SDS011;3833;41.764;26.204;2022-12-07T14:52:45;51.60;;;33.37;;
7583;SDS011;3833;41.764;26.204;2022-12-07T14:55:13;47.87;;;32.27;;
7583;SDS011;3833;41.764;26.204;2022-12-07T14:57:40;42.30;;;28.57;;
7583;SDS011;3833;41.764;26.204;2022-12-07T15:00:08;42.77;;;28.23;;
7583;SDS011;3833;41.764;26.204;2022-12-07T15:02:35;41.07;;;29.17;;
7583;SDS011;3833;41.764;26.204;2022-12-07T15:05:03;46.20;;;33.37;;
7583;SDS011;3833;41.764;26.204;2022-12-07T15:07:29;43.87;;;29.93;;
7583;SDS011;3833;41.764;26.204;2022-12-07T15:09:56;46.27;;;30.83;;
7583;SDS011;3833;41.764;26.204;2022-12-07T15:12:23;59.00;;;35.73;;
7583;SDS011;3833;41.764;26.204;2022-12-07T15:14:50;54.07;;;34.77;;
7583;SDS011;3833;41.764;26.204;2022-12-07T15:20:11;50.37;;;31.93;;
7583;SDS011;3833;41.764;26.204;2022-12-07T15:22:38;44.27;;;27.40;;
7583;SDS011;3833;41.764;26.204;2022-12-07T15:25:05;40.93;;;29.20;;